sensor_id;sensor_type;location;lat;lon;timestamp;temperature;humidity
7248;DHT22;3665;51.034;13.642;2022-09-03T00:15:17;13.30;1.00
7248;DHT22;3665;51.034;13.642;2022-09-03T00:26:59;13.20;1.00
7248;DHT22;3665;51.034;13.642;2022-09-03T00:45:03;12.30;1.00
7248;DHT22;3665;51.034;13.642;2022-09-03T00:50:05;12.00;1.00
7248;DHT22;3665;51.034;13.642;2022-09-03T00:54:58;11.80;1.00
7248;DHT22;3665;51.034;13.642;2022-09-03T01:00:14;11.50;1.00
7248;DHT22;3665;51.034;13.642;2022-09-03T01:24:48;10.70;1.00
7248;DHT22;3665;51.034;13.642;2022-09-03T02:02:22;11.30;1.00
7248;DHT22;3665;51.034;13.642;2022-09-03T02:08:06;11.30;1.00
7248;DHT22;3665;51.034;13.642;2022-09-03T02:14:24;11.30;1.00
7248;DHT22;3665;51.034;13.642;2022-09-03T02:26:42;10.80;1.00
7248;DHT22;3665;51.034;13.642;2022-09-03T02:31:43;10.50;1.00
7248;DHT22;3665;51.034;13.642;2022-09-03T02:39:50;10.30;1.00
7248;DHT22;3665;51.034;13.642;2022-09-03T03:26:38;9.60;1.00
7248;DHT22;3665;51.034;13.642;2022-09-03T04:23:11;8.70;1.00
7248;DHT22;3665;51.034;13.642;2022-09-03T04:36:31;8.60;99.90
7248;DHT22;3665;51.034;13.642;2022-09-03T04:53:07;8.60;1.00
7248;DHT22;3665;51.034;13.642;2022-09-03T05:06:11;8.80;1.00
7248;DHT22;3665;51.034;13.642;2022-09-03T05:11:11;9.30;1.00
7248;DHT22;3665;51.034;13.642;2022-09-03T06:02:28;12.70;1.00
7248;DHT22;3665;51.034;13.642;2022-09-03T06:08:18;13.00;1.00
7248;DHT22;3665;51.034;13.642;2022-09-03T06:14:37;13.30;1.00
7248;DHT22;3665;51.034;13.642;2022-09-03T06:32:31;14.30;1.00
7248;DHT22;3665;51.034;13.642;2022-09-03T07:03:30;15.50;1.00
7248;DHT22;3665;51.034;13.642;2022-09-03T07:21:34;16.30;1.00
7248;DHT22;3665;51.034;13.642;2022-09-03T07:27:08;16.50;1.00
7248;DHT22;3665;51.034;13.642;2022-09-03T07:37:53;17.10;1.00
7248;DHT22;3665;51.034;13.642;2022-09-03T07:43:47;17.60;1.00
7248;DHT22;3665;51.034;13.642;2022-09-03T07:50:12;17.70;1.00
7248;DHT22;3665;51.034;13.642;2022-09-03T10:12:16;23.30;1.00
7248;DHT22;3665;51.034;13.642;2022-09-03T10:20:19;23.50;1.00
7248;DHT22;3665;51.034;13.642;2022-09-03T10:25:26;23.40;1.00
7248;DHT22;3665;51.034;13.642;2022-09-03T10:58:24;23.40;1.00
7248;DHT22;3665;51.034;13.642;2022-09-03T13:44:06;24.40;1.00
7248;DHT22;3665;51.034;13.642;2022-09-03T13:50:49;24.10;1.00
7248;DHT22;3665;51.034;13.642;2022-09-03T14:58:47;23.60;1.00
7248;DHT22;3665;51.034;13.642;2022-09-03T15:12:38;23.50;1.00
7248;DHT22;3665;51.034;13.642;2022-09-03T15:17:59;23.80;1.00
7248;DHT22;3665;51.034;13.642;2022-09-03T15:28:40;23.80;1.00
7248;DHT22;3665;51.034;13.642;2022-09-03T15:34:18;24.20;1.00
7248;DHT22;3665;51.034;13.642;2022-09-03T15:39:24;24.00;1.00
7248;DHT22;3665;51.034;13.642;2022-09-03T15:45:00;23.80;1.00
7248;DHT22;3665;51.034;13.642;2022-09-03T15:50:31;23.40;1.00
7248;DHT22;3665;51.034;13.642;2022-09-03T15:56:35;23.20;1.00
7248;DHT22;3665;51.034;13.642;2022-09-03T16:01:29;22.90;1.00
7248;DHT22;3665;51.034;13.642;2022-09-03T16:07:06;22.70;1.00
7248;DHT22;3665;51.034;13.642;2022-09-03T16:12:38;22.50;1.00
7248;DHT22;3665;51.034;13.642;2022-09-03T16:18:22;22.20;1.00
7248;DHT22;3665;51.034;13.642;2022-09-03T16:23:48;21.90;1.00
7248;DHT22;3665;51.034;13.642;2022-09-03T16:29:58;21.70;1.00
7248;DHT22;3665;51.034;13.642;2022-09-03T16:34:53;21.60;1.00
7248;DHT22;3665;51.034;13.642;2022-09-03T16:39:54;21.40;1.00
7248;DHT22;3665;51.034;13.642;2022-09-03T16:45:29;21.20;1.00
7248;DHT22;3665;51.034;13.642;2022-09-03T16:50:36;21.10;1.00
7248;DHT22;3665;51.034;13.642;2022-09-03T17:01:15;20.80;1.00
7248;DHT22;3665;51.034;13.642;2022-09-03T17:12:04;20.10;1.00
7248;DHT22;3665;51.034;13.642;2022-09-03T17:17:08;19.70;1.00
7248;DHT22;3665;51.034;13.642;2022-09-03T17:22:14;19.30;1.00
7248;DHT22;3665;51.034;13.642;2022-09-03T17:27:49;19.10;1.00
7248;DHT22;3665;51.034;13.642;2022-09-03T17:38:00;18.30;1.00
7248;DHT22;3665;51.034;13.642;2022-09-03T17:43:06;17.90;1.00
7248;DHT22;3665;51.034;13.642;2022-09-03T17:48:23;17.70;1.00
7248;DHT22;3665;51.034;13.642;2022-09-03T17:53:46;17.50;1.00
7248;DHT22;3665;51.034;13.642;2022-09-03T17:59:07;17.30;1.00
7248;DHT22;3665;51.034;13.642;2022-09-03T18:04:40;17.00;1.00
7248;DHT22;3665;51.034;13.642;2022-09-03T18:09:45;16.80;1.00
7248;DHT22;3665;51.034;13.642;2022-09-03T18:14:49;16.80;1.00
7248;DHT22;3665;51.034;13.642;2022-09-03T18:19:53;16.70;1.00
7248;DHT22;3665;51.034;13.642;2022-09-03T18:25:09;16.60;1.00
7248;DHT22;3665;51.034;13.642;2022-09-03T18:30:33;16.40;1.00
7248;DHT22;3665;51.034;13.642;2022-09-03T18:36:05;16.30;1.00
7248;DHT22;3665;51.034;13.642;2022-09-03T18:41:23;16.40;1.00
7248;DHT22;3665;51.034;13.642;2022-09-03T18:46:47;16.40;1.00
7248;DHT22;3665;51.034;13.642;2022-09-03T18:52:40;16.40;1.00
7248;DHT22;3665;51.034;13.642;2022-09-03T18:58:16;16.30;1.00
7248;DHT22;3665;51.034;13.642;2022-09-03T19:04:04;16.30;1.00
7248;DHT22;3665;51.034;13.642;2022-09-03T19:09:15;16.10;1.00
7248;DHT22;3665;51.034;13.642;2022-09-03T19:14:34;15.90;1.00
7248;DHT22;3665;51.034;13.642;2022-09-03T19:20:04;15.90;1.00
7248;DHT22;3665;51.034;13.642;2022-09-03T19:25:25;15.90;1.00
7248;DHT22;3665;51.034;13.642;2022-09-03T19:30:36;15.90;1.00
7248;DHT22;3665;51.034;13.642;2022-09-03T19:35:54;15.80;1.00
7248;DHT22;3665;51.034;13.642;2022-09-03T19:41:32;15.80;1.00
7248;DHT22;3665;51.034;13.642;2022-09-03T19:46:48;15.80;1.00
7248;DHT22;3665;51.034;13.642;2022-09-03T19:52:06;15.60;1.00
7248;DHT22;3665;51.034;13.642;2022-09-03T19:57:26;15.40;1.00
7248;DHT22;3665;51.034;13.642;2022-09-03T20:02:46;15.50;1.00
7248;DHT22;3665;51.034;13.642;2022-09-03T20:08:03;15.60;1.00
7248;DHT22;3665;51.034;13.642;2022-09-03T20:13:44;15.80;1.00
7248;DHT22;3665;51.034;13.642;2022-09-03T20:19:20;15.80;1.00
7248;DHT22;3665;51.034;13.642;2022-09-03T20:24:27;15.90;1.00
7248;DHT22;3665;51.034;13.642;2022-09-03T20:29:37;15.80;1.00
7248;DHT22;3665;51.034;13.642;2022-09-03T20:34:35;15.50;1.00
7248;DHT22;3665;51.034;13.642;2022-09-03T20:39:38;15.30;1.00
7248;DHT22;3665;51.034;13.642;2022-09-03T20:44:56;15.20;1.00
7248;DHT22;3665;51.034;13.642;2022-09-03T20:50:01;15.00;1.00
7248;DHT22;3665;51.034;13.642;2022-09-03T20:55:15;15.10;1.00
7248;DHT22;3665;51.034;13.642;2022-09-03T21:00:09;15.20;1.00
7248;DHT22;3665;51.034;13.642;2022-09-03T21:05:13;15.30;1.00
7248;DHT22;3665;51.034;13.642;2022-09-03T21:10:32;15.40;1.00
7248;DHT22;3665;51.034;13.642;2022-09-03T21:15:48;15.50;1.00
7248;DHT22;3665;51.034;13.642;2022-09-03T21:21:25;15.50;1.00
7248;DHT22;3665;51.034;13.642;2022-09-03T21:26:42;15.60;1.00
7248;DHT22;3665;51.034;13.642;2022-09-03T21:31:38;15.50;1.00
7248;DHT22;3665;51.034;13.642;2022-09-03T21:36:53;15.40;1.00
7248;DHT22;3665;51.034;13.642;2022-09-03T21:41:42;15.40;1.00
7248;DHT22;3665;51.034;13.642;2022-09-03T21:46:57;15.20;1.00
7248;DHT22;3665;51.034;13.642;2022-09-03T21:51:51;15.00;1.00
7248;DHT22;3665;51.034;13.642;2022-09-03T21:57:23;14.90;1.00
7248;DHT22;3665;51.034;13.642;2022-09-03T22:02:33;14.70;1.00
7248;DHT22;3665;51.034;13.642;2022-09-03T22:07:54;14.50;1.00
7248;DHT22;3665;51.034;13.642;2022-09-03T22:13:15;14.50;1.00
7248;DHT22;3665;51.034;13.642;2022-09-03T22:18:19;14.50;1.00
7248;DHT22;3665;51.034;13.642;2022-09-03T22:23:36;14.50;1.00
7248;DHT22;3665;51.034;13.642;2022-09-03T22:29:00;14.50;1.00
7248;DHT22;3665;51.034;13.642;2022-09-03T22:34:32;14.60;1.00
7248;DHT22;3665;51.034;13.642;2022-09-03T22:39:46;14.70;1.00
7248;DHT22;3665;51.034;13.642;2022-09-03T22:44:57;14.60;1.00
7248;DHT22;3665;51.034;13.642;2022-09-03T22:50:11;14.50;1.00
7248;DHT22;3665;51.034;13.642;2022-09-03T22:55:22;14.50;1.00
7248;DHT22;3665;51.034;13.642;2022-09-03T23:01:11;14.40;1.00
7248;DHT22;3665;51.034;13.642;2022-09-03T23:06:17;14.40;1.00
7248;DHT22;3665;51.034;13.642;2022-09-03T23:12:04;14.40;1.00
7248;DHT22;3665;51.034;13.642;2022-09-03T23:17:14;14.40;1.00
7248;DHT22;3665;51.034;13.642;2022-09-03T23:22:46;14.40;1.00
7248;DHT22;3665;51.034;13.642;2022-09-03T23:28:08;14.60;1.00
7248;DHT22;3665;51.034;13.642;2022-09-03T23:33:11;14.70;1.00
7248;DHT22;3665;51.034;13.642;2022-09-03T23:38:12;14.80;1.00
7248;DHT22;3665;51.034;13.642;2022-09-03T23:43:55;14.90;1.00
7248;DHT22;3665;51.034;13.642;2022-09-03T23:54:32;15.00;1.00
